Time;durP1;ratioP1;P1;durP2;ratioP2;P2;SDS_P1;SDS_P2;PMS_P1;PMS_P2;Temp;Humidity;BMP_temperature;BMP_pressure;BME280_temperature;BME280_humidity;BME280_pressure;Samples;Min_cycle;Max_cycle;Signal;HPM_P1;HPM_P2
2021/04/24 00:00:12;;;;;;;18.90;8.33;;;;;;;10.40;43.33;95679.09;5071778;28;20437;-68
2021/04/24 00:02:40;;;;;;;13.10;7.10;;;;;;;10.56;43.60;95673.13;5071189;28;20541;-71
2021/04/24 00:05:12;;;;;;;13.03;8.03;;;;;;;10.80;43.13;95687.66;5071484;28;20438;-68
2021/04/24 00:07:38;;;;;;;13.37;6.70;;;;;;;10.48;43.80;95678.72;5074532;28;20577;-69
2021/04/24 00:10:05;;;;;;;11.00;7.33;;;;;;;10.69;43.08;95678.03;5074623;28;20493;-67
2021/04/24 00:12:31;;;;;;;15.90;8.23;;;;;;;10.71;42.58;95675.97;5074240;28;20461;-69
2021/04/24 00:14:58;;;;;;;15.37;7.67;;;;;;;10.84;42.86;95673.06;5079410;28;20426;-69
2021/04/24 00:17:24;;;;;;;12.57;7.40;;;;;;;10.74;43.07;95670.28;5078053;28;20433;-69
2021/04/24 00:19:51;;;;;;;16.87;7.60;;;;;;;10.68;42.74;95673.84;5071324;28;20434;-69
2021/04/24 00:22:17;;;;;;;15.50;8.00;;;;;;;10.51;43.67;95673.00;5070905;28;20512;-68
2021/04/24 00:24:44;;;;;;;12.23;7.67;;;;;;;10.50;42.91;95668.81;5071307;28;20772;-68
2021/04/24 00:27:10;;;;;;;16.23;7.80;;;;;;;10.51;43.70;95675.63;5070401;28;20504;-68
2021/04/24 00:29:36;;;;;;;14.10;7.17;;;;;;;10.54;42.80;95685.66;5071324;28;20533;-67
2021/04/24 00:32:03;;;;;;;12.57;7.43;;;;;;;10.18;43.55;95681.59;5070600;28;20470;-67
2021/04/24 00:34:30;;;;;;;13.80;7.40;;;;;;;10.07;44.04;95684.22;5071240;28;20958;-68
2021/04/24 00:36:56;;;;;;;14.67;7.67;;;;;;;10.28;43.62;95680.19;5070921;28;20438;-68
2021/04/24 00:39:22;;;;;;;15.30;7.10;;;;;;;10.41;43.70;95677.28;5072289;28;20442;-67
2021/04/24 00:41:49;;;;;;;12.07;7.10;;;;;;;10.55;42.99;95681.19;5070535;28;20861;-67
2021/04/24 00:44:15;;;;;;;11.57;6.70;;;;;;;10.50;42.72;95681.91;5070603;28;20534;-69
2021/04/24 00:46:42;;;;;;;13.90;7.77;;;;;;;10.24;43.16;95682.47;5070453;28;20856;-67
2021/04/24 00:49:10;;;;;;;14.67;6.73;;;;;;;10.44;42.76;95682.84;5069226;28;20496;-68
2021/04/24 00:51:36;;;;;;;12.87;7.30;;;;;;;10.52;42.52;95687.72;5070320;28;20470;-67
2021/04/24 00:54:04;;;;;;;10.57;7.17;;;;;;;10.53;42.57;95683.28;5069929;28;20438;-68
2021/04/24 00:56:32;;;;;;;15.47;7.53;;;;;;;10.43;42.87;95678.66;5070538;28;20816;-70
2021/04/24 00:58:58;;;;;;;14.33;7.10;;;;;;;10.49;43.12;95680.31;5070410;28;20446;-69
2021/04/24 01:01:25;;;;;;;15.57;6.77;;;;;;;10.40;43.41;95679.09;5070534;28;20442;-68
2021/04/24 01:03:52;;;;;;;13.03;7.03;;;;;;;10.55;42.43;95684.63;5069923;28;20495;-67
2021/04/24 01:06:18;;;;;;;14.57;6.97;;;;;;;10.56;42.88;95688.03;5070084;28;20446;-67
2021/04/24 01:08:44;;;;;;;14.67;7.27;;;;;;;10.57;42.82;95685.19;5070208;28;20806;-68
2021/04/24 01:11:11;;;;;;;14.20;7.07;;;;;;;10.44;42.70;95684.69;5069830;28;20564;-67
2021/04/24 01:13:38;;;;;;;14.63;7.73;;;;;;;10.43;42.77;95683.88;5069258;28;20440;-69
2021/04/24 01:16:04;;;;;;;13.50;7.17;;;;;;;10.49;43.06;95688.16;5070200;28;20434;-69
2021/04/24 01:18:31;;;;;;;14.63;7.33;;;;;;;10.29;42.94;95698.31;5069951;28;20434;-69
2021/04/24 01:20:58;;;;;;;15.53;7.43;;;;;;;9.93;42.66;95693.34;5069928;28;20482;-69
2021/04/24 01:23:25;;;;;;;11.93;6.97;;;;;;;9.86;43.39;95693.50;5069386;28;20458;-66
2021/04/24 01:25:53;;;;;;;13.53;7.37;;;;;;;9.96;43.62;95695.53;5070041;28;20448;-67
2021/04/24 01:28:19;;;;;;;17.30;7.00;;;;;;;9.71;43.51;95694.97;5069403;28;20901;-68
2021/04/24 01:30:47;;;;;;;13.53;6.77;;;;;;;9.94;43.98;95697.56;5069663;28;20450;-67
2021/04/24 01:33:14;;;;;;;16.90;7.57;;;;;;;10.18;42.77;95696.53;5069692;28;20434;-68
2021/04/24 01:35:43;;;;;;;13.13;7.47;;;;;;;10.33;43.19;95682.91;5070022;28;20857;-68
2021/04/24 01:38:10;;;;;;;16.60;7.80;;;;;;;10.56;42.68;95683.59;5075564;28;20820;-68
2021/04/24 01:40:37;;;;;;;13.90;7.63;;;;;;;10.31;42.98;95664.78;5070034;28;20434;-67
2021/04/24 01:43:06;;;;;;;14.73;7.90;;;;;;;10.37;42.73;95684.00;5069360;28;20442;-67
2021/04/24 01:45:33;;;;;;;21.77;7.50;;;;;;;10.22;43.45;95681.91;5069876;28;20499;-66
2021/04/24 01:48:01;;;;;;;15.27;7.60;;;;;;;10.16;43.21;95688.88;5068172;28;20476;-66
2021/04/24 01:50:31;;;;;;;12.97;7.00;;;;;;;10.02;43.12;95686.72;5069907;28;20801;-68
2021/04/24 01:53:00;;;;;;;13.17;7.30;;;;;;;10.07;43.13;95699.94;5069211;28;20442;-67
2021/04/24 01:55:29;;;;;;;13.40;7.30;;;;;;;9.92;43.54;95697.81;5068376;28;20533;-68
2021/04/24 01:57:57;;;;;;;16.47;6.53;;;;;;;9.69;42.91;95699.69;5069283;28;20452;-68
2021/04/24 02:00:29;;;;;;;14.17;6.90;;;;;;;9.73;43.83;95701.59;5069935;28;20442;-67
2021/04/24 02:02:57;;;;;;;18.10;6.60;;;;;;;9.82;43.73;95699.41;5069385;28;20517;-67
2021/04/24 02:05:26;;;;;;;13.60;6.77;;;;;;;9.75;43.93;95690.88;5069543;28;20442;-67
2021/04/24 02:08:06;;;;;;;12.90;7.50;;;;;;;9.75;43.71;95702.16;5069369;28;20477;-68
2021/04/24 02:10:34;;;;;;;14.77;6.30;;;;;;;9.66;42.81;95697.50;5069242;28;20477;-68
2021/04/24 02:13:05;;;;;;;11.63;7.40;;;;;;;9.60;44.10;95701.06;5068782;28;20522;-68
2021/04/24 02:15:31;;;;;;;11.10;7.20;;;;;;;9.79;43.19;95702.50;5069630;28;20450;-67
2021/04/24 02:17:58;;;;;;;12.33;7.00;;;;;;;9.83;43.02;95703.63;5069211;28;20440;-67
2021/04/24 02:20:25;;;;;;;16.03;6.30;;;;;;;9.79;44.00;95697.25;5069507;28;20938;-67
2021/04/24 02:22:51;;;;;;;12.97;6.57;;;;;;;9.75;43.84;95696.94;5068933;28;20442;-68
2021/04/24 02:25:20;;;;;;;16.60;7.10;;;;;;;9.70;44.29;95693.41;5069373;28;20460;-68
2021/04/24 02:27:47;;;;;;;18.73;7.77;;;;;;;9.84;43.29;95699.97;5068970;28;20482;-68
2021/04/24 02:30:17;;;;;;;12.53;6.77;;;;;;;9.85;43.81;95697.13;5069257;28;20448;-68
2021/04/24 02:32:44;;;;;;;14.03;6.87;;;;;;;9.92;43.51;95699.63;5069090;28;20964;-68
2021/04/24 02:35:14;;;;;;;11.47;6.70;;;;;;;10.06;43.06;95698.31;5069345;28;20434;-68
2021/04/24 02:37:41;;;;;;;13.27;7.10;;;;;;;9.89;43.69;95692.25;5068272;28;20441;-69
2021/04/24 02:40:11;;;;;;;14.03;7.53;;;;;;;9.86;44.00;95697.94;5069669;28;20442;-69
2021/04/24 02:42:38;;;;;;;18.03;7.67;;;;;;;9.66;44.37;95694.88;5068455;28;20438;-68
2021/04/24 02:45:07;;;;;;;15.03;7.30;;;;;;;9.56;45.29;95707.75;5069511;28;20452;-67
2021/04/24 02:47:34;;;;;;;14.40;7.67;;;;;;;9.53;45.64;95701.16;5068878;28;21014;-66
2021/04/24 02:50:05;;;;;;;22.57;7.80;;;;;;;9.53;45.67;95702.97;5069993;28;20418;-68
2021/04/24 02:52:31;;;;;;;13.83;7.43;;;;;;;9.33;45.83;95705.94;5068640;28;20445;-67
2021/04/24 02:54:58;;;;;;;16.10;7.90;;;;;;;9.19;46.54;95708.00;5069009;28;20438;-67
2021/04/24 02:57:24;;;;;;;13.43;7.33;;;;;;;8.87;47.49;95711.13;5068239;28;20542;-69
2021/04/24 02:59:51;;;;;;;22.13;10.20;;;;;;;9.12;46.57;95715.13;5069519;28;20521;-69
2021/04/24 03:02:18;;;;;;;17.77;8.10;;;;;;;9.18;46.20;95713.44;5071159;28;20449;-68
2021/04/24 03:04:45;;;;;;;16.73;7.13;;;;;;;9.04;47.92;95710.25;5069142;28;20460;-69
2021/04/24 03:07:12;;;;;;;16.07;7.73;;;;;;;8.89;48.92;95702.03;5067134;28;20481;-68
2021/04/24 03:09:38;;;;;;;18.10;8.00;;;;;;;8.86;48.98;95701.69;5068611;28;20508;-68
2021/04/24 03:12:06;;;;;;;18.57;8.20;;;;;;;8.83;48.27;95708.16;5068373;28;20441;-69
2021/04/24 03:14:34;;;;;;;18.13;7.97;;;;;;;8.74;49.33;95709.50;5068503;28;20750;-67
2021/04/24 03:17:00;;;;;;;20.97;9.63;;;;;;;8.89;49.38;95712.50;5069109;28;20533;-69
2021/04/24 03:19:26;;;;;;;18.97;8.53;;;;;;;8.90;49.06;95713.31;5072530;28;20422;-70
2021/04/24 03:21:53;;;;;;;18.47;9.03;;;;;;;8.82;49.49;95714.41;5071953;28;20438;-69
2021/04/24 03:24:20;;;;;;;17.17;9.00;;;;;;;8.82;49.52;95711.00;5072366;28;20449;-67
2021/04/24 03:26:47;;;;;;;21.57;8.70;;;;;;;8.80;50.48;95706.00;5071297;28;20503;-68
2021/04/24 03:29:13;;;;;;;21.77;10.27;;;;;;;8.67;50.74;95713.22;5072394;28;20442;-68
2021/04/24 03:31:40;;;;;;;24.53;11.47;;;;;;;8.61;50.25;95709.69;5070647;28;20438;-68
2021/04/24 03:34:06;;;;;;;19.80;11.63;;;;;;;8.53;50.72;95717.88;5072318;28;20799;-70
2021/04/24 03:36:33;;;;;;;25.67;12.60;;;;;;;8.55;50.78;95721.06;5073898;28;20442;-69
2021/04/24 03:39:00;;;;;;;24.37;13.10;;;;;;;8.45;51.27;95718.16;5075126;28;20441;-68
2021/04/24 03:41:26;;;;;;;24.47;12.10;;;;;;;8.48;51.41;95717.75;5072284;28;20476;-69
2021/04/24 03:43:53;;;;;;;21.70;12.13;;;;;;;8.45;51.39;95714.78;5073711;28;20997;-69
2021/04/24 03:46:19;;;;;;;30.80;12.43;;;;;;;8.45;52.42;95718.16;5074974;28;20446;-68
2021/04/24 03:48:46;;;;;;;27.10;12.23;;;;;;;8.41;52.94;95709.16;5071978;28;20476;-68
2021/04/24 03:51:13;;;;;;;23.77;11.60;;;;;;;8.42;52.97;95710.78;5071926;28;20445;-70
2021/04/24 03:53:40;;;;;;;19.30;11.60;;;;;;;8.43;52.42;95717.59;5071552;28;20441;-70
2021/04/24 03:56:06;;;;;;;23.93;11.87;;;;;;;8.51;52.65;95722.50;5071613;28;20450;-68
2021/04/24 03:58:32;;;;;;;26.37;12.03;;;;;;;8.46;53.21;95732.03;5071208;28;20441;-69
2021/04/24 04:00:59;;;;;;;26.43;12.63;;;;;;;8.27;53.13;95727.84;5071676;28;20927;-70
2021/04/24 04:03:26;;;;;;;25.48;12.63;;;;;;;8.44;53.61;95736.66;5071516;28;20453;-67
2021/04/24 04:05:53;;;;;;;23.37;12.77;;;;;;;8.45;53.00;95743.50;5071433;28;20353;-67
2021/04/24 04:08:19;;;;;;;21.77;13.27;;;;;;;8.45;53.49;95741.66;5058799;28;20863;-68
2021/04/24 04:10:50;;;;;;;33.17;17.63;;;;;;;8.41;52.58;95740.50;5060980;28;20505;-67
2021/04/24 04:13:17;;;;;;;29.67;18.93;;;;;;;8.41;52.31;95753.56;5060372;28;20501;-67
2021/04/24 04:15:43;;;;;;;28.17;17.17;;;;;;;8.43;53.23;95745.53;5060500;28;20464;-68
2021/04/24 04:18:17;;;;;;;31.00;15.23;;;;;;;8.38;53.38;95754.00;5061710;28;20430;-67
2021/04/24 04:20:46;;;;;;;32.43;14.70;;;;;;;8.37;53.69;95739.38;5061792;28;20892;-68
2021/04/24 04:23:22;;;;;;;28.00;15.67;;;;;;;8.46;53.54;95745.88;5060782;28;20437;-68
2021/04/24 04:25:50;;;;;;;26.47;15.03;;;;;;;8.25;54.25;95712.41;5063986;28;20453;-69
2021/04/24 04:28:18;;;;;;;30.13;15.60;;;;;;;8.56;53.97;95738.31;5059378;28;20540;-67
2021/04/24 04:30:44;;;;;;;31.97;16.50;;;;;;;8.50;53.73;95733.19;5058707;28;20446;-68
2021/04/24 04:33:11;;;;;;;29.77;16.57;;;;;;;8.45;53.54;95740.88;5060416;28;20434;-67
2021/04/24 04:35:39;;;;;;;33.00;17.33;;;;;;;8.54;54.12;95740.34;5060400;28;20463;-69
2021/04/24 04:38:07;;;;;;;32.17;17.23;;;;;;;8.64;53.45;95745.84;5058304;28;20984;-67
2021/04/24 04:40:34;;;;;;;35.50;16.70;;;;;;;8.63;53.46;95746.84;5058712;28;20455;-69
2021/04/24 04:43:05;;;;;;;28.03;16.67;;;;;;;8.65;53.57;95741.41;5058641;28;20426;-68
2021/04/24 04:45:32;;;;;;;30.93;16.13;;;;;;;8.71;53.51;95740.50;5060772;28;20541;-68
2021/04/24 04:47:59;;;;;;;35.60;16.73;;;;;;;8.77;53.84;95740.44;5059386;28;20839;-69
2021/04/24 04:50:29;;;;;;;30.23;17.07;;;;;;;8.86;53.54;95743.50;5055213;28;20972;-70
2021/04/24 04:52:56;;;;;;;28.83;16.93;;;;;;;8.69;54.70;95747.78;5050253;28;20451;-68
2021/04/24 04:55:23;;;;;;;32.90;16.00;;;;;;;8.83;53.81;95738.75;5050959;28;20439;-69
2021/04/24 04:57:50;;;;;;;31.13;17.50;;;;;;;8.71;54.21;95730.88;5050553;28;20451;-68
2021/04/24 05:00:19;;;;;;;29.87;14.80;;;;;;;8.77;53.89;95737.81;5050865;28;20978;-68
2021/04/24 05:02:47;;;;;;;24.00;15.07;;;;;;;9.05;53.95;95735.38;5049944;28;20447;-67
2021/04/24 05:05:15;;;;;;;30.90;15.67;;;;;;;9.11;53.78;95729.25;5050342;28;20478;-67
2021/04/24 05:07:43;;;;;;;32.80;15.63;;;;;;;9.20;53.87;95730.50;5049915;28;20486;-67
2021/04/24 05:10:26;;;;;;;28.53;15.03;;;;;;;9.33;53.46;95719.03;5050103;28;20474;-69
2021/04/24 05:12:53;;;;;;;28.20;13.13;;;;;;;9.15;51.21;95713.91;5048609;28;20439;-69
2021/04/24 05:15:20;;;;;;;22.13;10.17;;;;;;;9.20;48.83;95706.97;5051323;28;20446;-68
2021/04/24 05:17:47;;;;;;;19.47;9.87;;;;;;;9.23;47.81;95724.81;5051262;28;20530;-66
2021/04/24 05:20:15;;;;;;;23.53;11.57;;;;;;;9.38;47.42;95728.81;5051217;28;21046;-67
2021/04/24 05:22:46;;;;;;;15.50;9.03;;;;;;;9.61;48.46;95731.41;5049533;28;20518;-68
2021/04/24 05:25:14;;;;;;;20.53;11.23;;;;;;;9.77;49.63;95728.91;5049821;28;20447;-67
2021/04/24 05:27:45;;;;;;;23.43;10.70;;;;;;;9.99;46.00;95727.28;5047925;28;20475;-66
2021/04/24 05:30:16;;;;;;;19.77;10.80;;;;;;;9.85;46.57;95712.06;5049960;28;20457;-68
2021/04/24 05:32:43;;;;;;;33.83;19.50;;;;;;;9.56;45.06;95739.16;5049679;28;20443;-70
2021/04/24 05:35:11;;;;;;;34.63;25.50;;;;;;;9.84;45.25;95747.09;5050073;28;20547;-68
2021/04/24 05:37:37;;;;;;;19.77;10.17;;;;;;;9.77;44.13;95743.81;5047825;28;20458;-67
2021/04/24 05:40:04;;;;;;;16.93;9.57;;;;;;;10.08;45.18;95740.78;5048229;28;20462;-72
2021/04/24 05:42:32;;;;;;;20.90;9.30;;;;;;;10.00;45.24;95736.72;5052137;28;20426;-69
2021/04/24 05:44:59;;;;;;;22.50;8.97;;;;;;;9.98;44.31;95732.75;5056605;28;20538;-69
2021/04/24 05:47:26;;;;;;;18.47;9.10;;;;;;;10.17;45.36;95742.06;5059537;28;20565;-69
2021/04/24 05:49:53;;;;;;;25.17;9.40;;;;;;;10.26;45.05;95740.66;5061467;28;21040;-70
2021/04/24 05:52:19;;;;;;;19.40;9.77;;;;;;;10.40;44.65;95752.44;5059284;28;20441;-68
2021/04/24 05:54:47;;;;;;;48.87;32.53;;;;;;;10.54;43.56;95747.75;5058501;28;20448;-67
2021/04/24 05:57:13;;;;;;;35.67;22.33;;;;;;;10.63;44.82;95744.53;5056981;28;20432;-71
2021/04/24 05:59:40;;;;;;;16.03;9.20;;;;;;;10.48;43.03;95744.25;5066239;28;20480;-68
2021/04/24 06:02:07;;;;;;;16.77;9.07;;;;;;;10.51;41.90;95740.38;5068878;28;20442;-70
2021/04/24 06:04:33;;;;;;;16.37;8.63;;;;;;;10.41;43.16;95743.59;5068643;28;20498;-69
2021/04/24 06:07:02;;;;;;;14.63;9.03;;;;;;;10.49;42.70;95748.44;5068888;28;20514;-75
2021/04/24 06:09:29;;;;;;;17.27;8.87;;;;;;;10.66;42.74;95741.41;5069258;28;20516;-72
2021/04/24 06:11:55;;;;;;;17.13;8.60;;;;;;;10.45;42.26;95733.44;5068911;28;20476;-68
2021/04/24 06:14:22;;;;;;;19.87;9.07;;;;;;;10.38;42.87;95735.41;5068800;28;20940;-67
2021/04/24 06:16:48;;;;;;;15.40;9.70;;;;;;;10.65;44.41;95739.84;5068528;28;20492;-68
2021/04/24 06:19:15;;;;;;;52.77;34.90;;;;;;;10.93;42.83;95731.94;5069171;28;20506;-68
2021/04/24 06:21:41;;;;;;;69.43;46.43;;;;;;;10.96;42.68;95741.97;5068845;28;20864;-67
2021/04/24 06:24:08;;;;;;;19.80;9.60;;;;;;;10.60;40.88;95737.09;5068955;28;20457;-71
2021/04/24 06:26:34;;;;;;;14.60;9.00;;;;;;;10.93;41.89;95752.91;5069069;28;20472;-69
2021/04/24 06:29:01;;;;;;;18.50;8.80;;;;;;;11.03;41.06;95739.19;5067447;28;21137;-70
2021/04/24 06:31:27;;;;;;;16.73;9.63;;;;;;;11.26;44.07;95735.63;5056546;28;20455;-68
2021/04/24 06:33:54;;;;;;;20.53;8.83;;;;;;;11.55;40.00;95731.88;5059595;28;20438;-67
2021/04/24 06:36:20;;;;;;;16.03;9.57;;;;;;;11.22;39.98;95741.31;5068643;28;20560;-69
2021/04/24 06:38:46;;;;;;;21.20;9.30;;;;;;;11.38;39.25;95724.00;5049626;28;20840;-69
2021/04/24 06:41:13;;;;;;;16.77;8.60;;;;;;;11.56;38.55;95729.00;5048994;28;20435;-67
2021/04/24 06:43:40;;;;;;;18.70;8.50;;;;;;;11.24;38.25;95744.50;5047914;28;20534;-71
2021/04/24 06:46:06;;;;;;;15.70;8.70;;;;;;;11.09;39.04;95736.38;5049046;28;20439;-71
2021/04/24 06:48:32;;;;;;;14.47;7.97;;;;;;;11.20;38.24;95722.41;5047835;28;20466;-68
2021/04/24 06:51:00;;;;;;;14.83;7.77;;;;;;;11.36;37.05;95741.03;5066910;28;20445;-68
2021/04/24 06:53:27;;;;;;;13.23;6.97;;;;;;;11.37;37.86;95745.25;5071489;28;20430;-67
2021/04/24 06:55:54;;;;;;;14.53;7.80;;;;;;;11.71;37.19;95733.69;5072797;28;20434;-71
2021/04/24 06:58:25;;;;;;;16.77;8.00;;;;;;;11.88;36.29;95731.81;5072190;28;20530;-67
2021/04/24 07:00:54;;;;;;;12.77;7.00;;;;;;;11.90;36.50;95737.63;5072344;28;20536;-69
2021/04/24 07:03:23;;;;;;;16.33;7.23;;;;;;;11.98;36.38;95729.34;5071834;28;20506;-67
2021/04/24 07:05:50;;;;;;;24.13;12.27;;;;;;;11.98;38.52;95735.41;5072991;28;21010;-66
2021/04/24 07:08:17;;;;;;;38.57;23.97;;;;;;;12.17;36.43;95728.78;5072024;28;20485;-65
2021/04/24 07:10:43;;;;;;;24.30;13.33;;;;;;;12.36;35.88;95721.38;5072679;28;20473;-69
2021/04/24 07:13:10;;;;;;;12.53;7.23;;;;;;;12.69;34.77;95715.97;5073262;28;20442;-66
2021/04/24 07:15:36;;;;;;;12.27;7.00;;;;;;;12.31;35.40;95729.22;5072146;28;20823;-66
2021/04/24 07:18:04;;;;;;;14.83;6.97;;;;;;;12.34;34.90;95728.72;5071244;28;20433;-69
2021/04/24 07:20:30;;;;;;;17.30;6.80;;;;;;;11.89;35.29;95725.53;5071908;28;20446;-68
2021/04/24 07:22:57;;;;;;;16.87;7.50;;;;;;;12.23;35.35;95727.81;5071770;28;20434;-70
2021/04/24 07:25:23;;;;;;;16.33;7.30;;;;;;;12.52;34.43;95736.28;5071991;28;20535;-70
2021/04/24 07:27:50;;;;;;;14.77;7.33;;;;;;;12.44;34.00;95739.38;5071167;28;20504;-68
2021/04/24 07:30:17;;;;;;;13.20;7.47;;;;;;;12.63;34.38;95716.16;5072161;28;20442;-71
2021/04/24 07:32:43;;;;;;;15.33;7.60;;;;;;;12.86;32.87;95732.44;5071144;28;20905;-71
2021/04/24 07:35:11;;;;;;;24.40;8.43;;;;;;;13.10;32.98;95728.47;5071332;28;20475;-70
2021/04/24 07:37:38;;;;;;;53.77;42.80;;;;;;;12.88;33.18;95714.56;5071099;28;20952;-70
2021/04/24 07:40:06;;;;;;;13.93;6.97;;;;;;;13.10;31.85;95722.44;5071686;28;20442;-70
2021/04/24 07:42:33;;;;;;;16.10;6.90;;;;;;;13.23;32.35;95713.31;5070995;28;20810;-69
2021/04/24 07:44:59;;;;;;;11.80;6.60;;;;;;;12.88;32.30;95719.81;5071871;28;20456;-69
2021/04/24 07:47:26;;;;;;;12.80;6.83;;;;;;;13.23;31.12;95716.72;5071474;28;20527;-68
2021/04/24 07:49:52;;;;;;;10.20;6.10;;;;;;;13.49;31.77;95717.69;5072040;28;20445;-68
2021/04/24 07:52:20;;;;;;;17.57;7.53;;;;;;;13.86;33.10;95713.22;5070201;28;20446;-70
2021/04/24 07:54:47;;;;;;;15.90;7.17;;;;;;;13.78;32.06;95708.41;5070338;28;20533;-71
2021/04/24 07:57:15;;;;;;;15.93;7.47;;;;;;;14.21;31.88;95719.41;5071340;28;20452;-69
2021/04/24 07:59:43;;;;;;;14.83;6.47;;;;;;;14.33;31.57;95706.06;5071739;28;20450;-68
2021/04/24 08:02:12;;;;;;;20.47;6.53;;;;;;;14.40;31.95;95709.25;5071398;28;20426;-70
2021/04/24 08:04:43;;;;;;;15.20;6.77;;;;;;;14.55;31.53;95698.75;5071063;28;20492;-70
2021/04/24 08:07:10;;;;;;;13.65;7.10;;;;;;;14.33;30.28;95706.06;5069612;28;20477;-70
2021/04/24 08:09:37;;;;;;;14.87;7.27;;;;;;;14.10;29.98;95707.25;5071082;28;20477;-68
2021/04/24 08:12:05;;;;;;;13.10;7.20;;;;;;;13.90;30.35;95711.66;5070717;28;20445;-70
2021/04/24 08:14:31;;;;;;;14.83;7.30;;;;;;;14.25;30.53;95698.59;5070877;28;20475;-70
2021/04/24 08:17:00;;;;;;;14.03;6.83;;;;;;;14.30;30.05;95706.59;5071049;28;20434;-73
2021/04/24 08:19:27;;;;;;;13.43;6.37;;;;;;;14.25;29.48;95709.16;5071505;28;20449;-71
2021/04/24 08:21:55;;;;;;;12.80;6.30;;;;;;;14.34;29.55;95683.94;5070857;28;20457;-72
2021/04/24 08:24:22;;;;;;;14.97;6.37;;;;;;;14.46;29.53;95692.41;5071172;28;20474;-72
2021/04/24 08:26:49;;;;;;;13.60;5.93;;;;;;;14.45;29.96;95682.88;5056897;28;20430;-71
2021/04/24 08:29:15;;;;;;;14.70;7.20;;;;;;;14.72;29.44;95675.56;5051518;28;20477;-70
2021/04/24 08:31:43;;;;;;;16.07;7.00;;;;;;;14.87;29.20;95670.28;5050753;28;20423;-71
2021/04/24 08:34:11;;;;;;;12.47;7.00;;;;;;;15.15;29.92;95675.06;5051191;28;20454;-70
2021/04/24 08:36:38;;;;;;;11.83;6.60;;;;;;;15.04;28.29;95662.13;5054910;28;20453;-70
2021/04/24 08:39:06;;;;;;;15.60;6.80;;;;;;;15.25;28.47;95658.44;5050853;28;20850;-71
2021/04/24 08:41:32;;;;;;;15.47;7.50;;;;;;;15.24;28.46;95655.00;5051113;28;20447;-71
2021/04/24 08:43:59;;;;;;;12.13;6.40;;;;;;;14.72;27.99;95656.31;5050886;28;20530;-68
2021/04/24 08:46:26;;;;;;;13.17;6.57;;;;;;;14.82;27.73;95651.03;5050582;28;20458;-69
2021/04/24 08:48:57;;;;;;;9.63;5.97;;;;;;;14.95;27.42;95646.03;5049967;28;20564;-71
2021/04/24 08:51:25;;;;;;;11.97;7.00;;;;;;;15.09;28.08;95641.81;5050541;28;20573;-69
2021/04/24 08:53:53;;;;;;;10.23;6.30;;;;;;;15.16;27.76;95637.03;5050120;28;20957;-70
2021/04/24 08:56:25;;;;;;;15.83;6.63;;;;;;;15.16;27.09;95637.03;5050346;28;20479;-69
2021/04/24 08:58:52;;;;;;;13.63;6.23;;;;;;;15.34;26.31;95634.91;5050006;28;20463;-70
2021/04/24 09:01:20;;;;;;;12.17;6.00;;;;;;;15.24;26.69;95630.44;5050144;28;20542;-69
2021/04/24 09:03:47;;;;;;;9.43;5.63;;;;;;;15.29;25.92;95630.41;5049803;28;20463;-70
2021/04/24 09:06:19;;;;;;;10.23;5.73;;;;;;;15.49;25.65;95624.34;5050684;28;20463;-68
2021/04/24 09:08:55;;;;;;;13.40;5.57;;;;;;;15.51;26.36;95627.53;5049844;28;20681;-70
2021/04/24 09:11:23;;;;;;;11.40;5.43;;;;;;;15.83;26.00;95609.44;5049951;28;20488;-69
2021/04/24 09:14:04;;;;;;;10.40;5.63;;;;;;;15.52;24.96;95603.47;5049682;28;20457;-69
2021/04/24 09:16:32;;;;;;;9.03;5.53;;;;;;;15.33;26.25;95599.03;5050323;28;20526;-69
2021/04/24 09:18:59;;;;;;;11.73;5.43;;;;;;;15.11;25.56;95596.66;5050101;28;20431;-69
2021/04/24 09:21:28;;;;;;;10.87;5.80;;;;;;;15.38;25.55;95577.88;5050329;28;20450;-68
2021/04/24 09:23:55;;;;;;;10.30;4.83;;;;;;;15.19;25.70;95588.22;5049566;28;20808;-70
2021/04/24 09:26:25;;;;;;;11.80;5.77;;;;;;;15.66;26.01;95580.72;5059644;28;20481;-70
2021/04/24 09:29:00;;;;;;;18.30;6.50;;;;;;;16.12;26.70;95586.59;5069177;28;20462;-72
2021/04/24 09:31:27;;;;;;;9.80;5.67;;;;;;;14.75;25.79;95582.72;5070103;28;20441;-69
2021/04/24 09:33:59;;;;;;;10.27;5.33;;;;;;;15.63;24.95;95578.63;5069650;28;20517;-70
2021/04/24 09:36:37;;;;;;;10.97;5.90;;;;;;;15.36;24.83;95582.63;5070292;28;20810;-70
2021/04/24 09:39:09;;;;;;;10.53;5.10;;;;;;;15.52;25.95;95569.16;5069616;28;20442;-70
2021/04/24 09:41:38;;;;;;;12.20;5.60;;;;;;;16.23;26.73;95572.25;5069638;28;20543;-70
2021/04/24 09:44:12;;;;;;;10.60;5.90;;;;;;;16.04;25.43;95564.16;5069453;28;20442;-70
2021/04/24 09:46:47;;;;;;;12.97;5.97;;;;;;;16.28;24.51;95566.16;5069659;28;20448;-68
2021/04/24 09:49:30;;;;;;;11.30;5.90;;;;;;;16.22;26.00;95560.09;5069878;28;20476;-70
2021/04/24 09:51:59;;;;;;;14.97;6.40;;;;;;;16.46;28.08;95549.63;5069372;28;21259;-70
2021/04/24 09:54:32;;;;;;;11.60;5.70;;;;;;;16.60;27.03;95554.03;5069461;28;20473;-70
2021/04/24 09:57:10;;;;;;;12.23;6.30;;;;;;;16.58;26.69;95545.59;5069322;28;20434;-71
2021/04/24 09:59:57;;;;;;;10.63;6.10;;;;;;;16.70;27.22;95540.72;5072245;28;20434;-70
2021/04/24 10:02:46;;;;;;;12.13;6.10;;;;;;;16.76;27.33;95544.91;5070621;28;20426;-70
2021/04/24 10:05:18;;;;;;;12.40;6.80;;;;;;;16.91;27.38;95534.19;5069949;28;20526;-70
2021/04/24 10:07:49;;;;;;;16.87;7.57;;;;;;;16.78;26.81;95537.47;5069320;28;20840;-72
2021/04/24 10:10:40;;;;;;;13.70;6.33;;;;;;;16.36;24.88;95524.03;5069487;28;20474;-70
2021/04/24 10:13:09;;;;;;;11.67;6.20;;;;;;;16.46;24.79;95531.88;5069107;28;20517;-68
2021/04/24 10:15:44;;;;;;;13.13;5.97;;;;;;;16.33;25.60;95524.56;5069282;28;20438;-71
2021/04/24 10:18:14;;;;;;;10.23;5.83;;;;;;;16.04;25.39;95521.06;5069671;28;20877;-68
2021/04/24 10:20:44;;;;;;;12.63;6.40;;;;;;;16.31;24.71;95521.44;5070008;28;20439;-69
2021/04/24 10:23:14;;;;;;;14.70;6.80;;;;;;;16.39;25.72;95518.19;5069257;28;20468;-68
2021/04/24 10:25:41;;;;;;;12.47;6.17;;;;;;;15.69;26.15;95523.91;5070341;28;20543;-69
2021/04/24 10:28:07;;;;;;;12.40;6.10;;;;;;;16.08;26.17;95508.88;5073070;28;20509;-72
2021/04/24 10:30:34;;;;;;;10.50;6.57;;;;;;;16.52;26.18;95507.00;5074495;28;20796;-70
2021/04/24 10:33:03;;;;;;;11.63;6.20;;;;;;;16.76;27.22;95510.50;5073108;28;20541;-71
2021/04/24 10:35:31;;;;;;;11.40;6.37;;;;;;;16.87;26.11;95514.63;5073361;28;21003;-70
2021/04/24 10:38:01;;;;;;;13.23;6.27;;;;;;;16.70;25.74;95508.97;5076384;28;20452;-70
2021/04/24 10:40:27;;;;;;;12.67;6.50;;;;;;;17.16;25.90;95509.31;5074188;28;20434;-70
2021/04/24 10:42:56;;;;;;;14.43;6.70;;;;;;;17.11;26.54;95504.88;5072897;28;20529;-69
2021/04/24 10:45:33;;;;;;;12.17;6.37;;;;;;;17.08;26.82;95500.09;5073214;28;20445;-71
2021/04/24 10:48:01;;;;;;;12.23;6.13;;;;;;;17.40;27.29;95498.72;5073005;28;20526;-69
2021/04/24 10:50:39;;;;;;;13.43;6.70;;;;;;;17.32;26.75;95507.28;5073373;28;20540;-69
2021/04/24 10:53:22;;;;;;;14.27;6.77;;;;;;;17.46;27.02;95500.22;5072841;28;20934;-69
2021/04/24 10:55:50;;;;;;;12.07;6.17;;;;;;;17.49;26.71;95505.78;5072971;28;20440;-69
2021/04/24 10:58:22;;;;;;;14.13;6.67;;;;;;;17.16;26.59;95506.66;5072468;28;20442;-67
2021/04/24 11:00:56;;;;;;;10.03;6.80;;;;;;;16.99;26.13;95512.38;5072944;28;20422;-69
2021/04/24 11:03:34;;;;;;;7.83;5.97;;;;;;;16.83;25.57;95523.41;5072377;28;20831;-69
2021/04/24 11:06:16;;;;;;;12.40;6.47;;;;;;;17.03;26.11;95508.13;5072785;28;20821;-69
2021/04/24 11:08:44;;;;;;;14.43;6.77;;;;;;;17.05;27.05;95521.88;5072107;28;20485;-69
2021/04/24 11:11:15;;;;;;;13.17;6.07;;;;;;;17.10;26.47;95527.09;5072137;28;20493;-71
2021/04/24 11:13:45;;;;;;;15.70;6.10;;;;;;;16.95;27.80;95529.88;5071917;28;20967;-70
2021/04/24 11:16:15;;;;;;;45.33;32.27;;;;;;;17.34;27.29;95529.75;5072497;28;20970;-71
2021/04/24 11:18:44;;;;;;;176.27;153.53;;;;;;;17.36;25.82;95526.81;5072642;28;21064;-69
2021/04/24 11:21:24;;;;;;;12.30;8.10;;;;;;;17.06;25.86;95538.56;5073442;28;20519;-69
2021/04/24 11:24:00;;;;;;;13.60;5.87;;;;;;;16.82;26.63;95543.00;5074418;28;20476;-69
2021/04/24 11:26:34;;;;;;;11.50;5.80;;;;;;;17.10;25.96;95542.19;5074324;28;20472;-68
2021/04/24 11:29:02;;;;;;;11.67;6.00;;;;;;;16.99;27.98;95544.16;5065461;28;20457;-68
2021/04/24 11:31:56;;;;;;;10.13;5.70;;;;;;;16.85;26.44;95531.84;5061270;28;20445;-68